Terminal Aerodrome Forecast
Issued by NWS Omaha/Valley, NE

Home | Current Version | Previous Version | Graphics & Text | Print | Product List | Glossary On
Versions: 1 2 3 4 5 6 7 8 9 10 11 12 13 14
000
FTUS43 KOAX 162329
TAFOFK
TAF
KOFK 162329Z 1700/1724 32025G32KT P6SM OVC018
     FM170100 33022G30KT P6SM OVC018
     FM170400 34013KT P6SM OVC015
     FM170700 34008KT P6SM OVC015
     FM171500 36008KT P6SM SCT025 BKN100=

USA.gov is the U.S. government's official web portal to all federal, state and local government web resources and services.